Time;durP1;ratioP1;P1;durP2;ratioP2;P2;SDS_P1;SDS_P2;PMS_P1;PMS_P2;Temp;Humidity;BMP_temperature;BMP_pressure;BME280_temperature;BME280_humidity;BME280_pressure;Samples;Min_cycle;Max_cycle;Signal;HPM_P1;HPM_P2
2023/10/18 00:01:31;;;;;;;;;0.00;0.00;;;;;12.18;100.00;100251.72;6271505;22;45468;-87
2023/10/18 00:07:26;;;;;;;;;;;;;;;;;;;;;
2023/10/18 00:10:19;;;;;;;;;0.00;0.00;;;;;12.14;100.00;100250.13;6265622;22;68800;-87
2023/10/18 00:13:10;;;;;;;;;;;;;;;;;;;;;
2023/10/18 00:15:54;;;;;;;;;;;;;;;;;;;;;
2023/10/18 00:18:37;;;;;;;;;;;;;;;;;;;;;
2023/10/18 00:21:44;;;;;;;;;;;;;;;;;;;;;
2023/10/18 00:24:42;;;;;;;;;;;;;;;;;;;;;
2023/10/18 00:28:12;;;;;;;;;0.00;0.00;;;;;12.06;100.00;100223.53;6201272;22;76570;-86
2023/10/18 00:31:11;;;;;;;;;0.00;0.00;;;;;12.03;100.00;100218.44;6207939;22;45342;-87
2023/10/18 00:33:49;;;;;;;;;0.00;0.00;;;;;12.00;100.00;100224.66;6202809;22;45268;-87
2023/10/18 00:36:35;;;;;;;;;0.00;0.00;;;;;11.99;100.00;100216.88;6185816;22;45292;-87
2023/10/18 00:42:52;;;;;;;;;;;;;;;;;;;;;
2023/10/18 00:52:18;;;;;;;;;0.00;0.00;;;;;11.91;100.00;100185.91;5918528;24;46900;-87
2023/10/18 00:55:37;;;;;;;;;;;;;;;;;;;;;
2023/10/18 01:01:47;;;;;;;;;0.00;0.00;;;;;11.86;100.00;100179.19;5864522;24;45455;-87
2023/10/18 01:04:34;;;;;;;;;0.00;0.00;;;;;11.91;100.00;100191.13;5940229;23;45651;-87
2023/10/18 01:07:33;;;;;;;;;0.00;0.00;;;;;11.86;100.00;100172.19;5946792;23;45358;-87
2023/10/18 01:14:14;;;;;;;;;;;;;;;;;;;;;
2023/10/18 01:17:20;;;;;;;;;;;;;;;;;;;;;
2023/10/18 01:19:59;;;;;;;;;0.00;0.00;;;;;11.79;100.00;100145.56;5915798;24;72707;-87
2023/10/18 01:22:45;;;;;;;;;0.00;0.00;;;;;11.77;100.00;100143.91;5918973;24;45619;-87
2023/10/18 01:25:41;;;;;;;;;0.00;0.00;;;;;11.80;100.00;100138.56;5913878;23;45351;-87
2023/10/18 01:34:28;;;;;;;;;;;;;;;;;;;;;
2023/10/18 01:37:49;;;;;;;;;;;;;;;;;;;;;
2023/10/18 01:40:54;;;;;;;;;;;;;;;;;;;;;
2023/10/18 01:43:55;;;;;;;;;;;;;;;;;;;;;
2023/10/18 01:46:29;;;;;;;;;0.00;0.00;;;;;11.72;100.00;100127.59;6239387;22;68909;-86
2023/10/18 01:52:19;;;;;;;;;0.00;0.00;;;;;11.71;100.00;100105.91;6270702;22;46962;-87
2023/10/18 01:55:11;;;;;;;;;0.00;0.00;;;;;11.75;100.00;100104.84;6248281;22;45268;-86
2023/10/18 01:57:58;;;;;;;;;0.00;0.00;;;;;11.73;100.00;100100.63;6247301;22;45342;-87
2023/10/18 02:00:41;;;;;;;;;0.00;0.00;;;;;11.75;100.00;100104.03;6247285;22;45331;-87
2023/10/18 02:03:40;;;;;;;;;0.00;0.00;;;;;11.78;100.00;100103.91;6244479;22;47205;-87
2023/10/18 02:06:59;;;;;;;;;;;;;;;;;;;;;
2023/10/18 02:10:21;;;;;;;;;;;;;;;;;;;;;
2023/10/18 02:16:40;;;;;;;;;;;;;;;;;;;;;
2023/10/18 02:19:37;;;;;;;;;0.00;0.00;;;;;11.70;100.00;100074.69;6154480;23;45341;-86
2023/10/18 02:22:57;;;;;;;;;;;;;;;;;;;;;
2023/10/18 02:29:41;;;;;;;;;;;;;;;;;;;;;
2023/10/18 02:38:30;;;;;;;;;0.00;0.00;;;;;11.60;100.00;100022.97;6058967;23;45837;-87
2023/10/18 02:41:47;;;;;;;;;;;;;;;;;;;;;
2023/10/18 02:50:02;;;;;;;;;0.00;0.00;;;;;11.56;100.00;100016.19;5974460;23;45459;-87
2023/10/18 02:52:52;;;;;;;;;;;;;;;;;;;;;
2023/10/18 02:55:42;;;;;;;;;0.00;0.00;;;;;11.54;100.00;100014.59;5942168;23;73603;-86
2023/10/18 02:58:28;;;;;;;;;0.00;0.00;;;;;11.53;100.00;100016.31;5946736;23;45341;-87
2023/10/18 03:01:29;;;;;;;;;;;;;;;;;;;;;
2023/10/18 03:04:21;;;;;;;;;;;;;;;;;;;;;
2023/10/18 03:06:52;;;;;;;;;0.00;0.00;;;;;11.56;100.00;99995.34;5970697;23;73957;-87
2023/10/18 03:12:30;;;;;;;;;0.00;0.00;;;;;11.58;100.00;99992.69;6073060;23;45395;-87
2023/10/18 03:15:24;;;;;;;;;0.00;0.00;;;;;11.56;100.00;99979.69;6066344;23;47153;-86
2023/10/18 03:18:25;;;;;;;;;;;;;;;;;;;;;
2023/10/18 03:21:50;;;;;;;;;;;;;;;;;;;;;
2023/10/18 03:24:29;;;;;;;;;;;;;;;;;;;;;
2023/10/18 03:27:41;;;;;;;;;;;;;;;;;;;;;
2023/10/18 03:30:17;;;;;;;;;0.00;0.00;;;;;11.53;100.00;99974.63;6267208;22;72060;-86
2023/10/18 03:33:13;;;;;;;;;;;;;;;;;;;;;
2023/10/18 03:36:17;;;;;;;;;;;;;;;;;;;;;
2023/10/18 03:38:54;;;;;;;;;0.00;0.00;;;;;11.58;100.00;99970.06;6262584;22;46562;-87
2023/10/18 03:45:15;;;;;;;;;0.00;0.00;;;;;11.67;100.00;99971.41;6089974;23;45538;-86
2023/10/18 03:48:23;;;;;;;;;0.00;0.00;;;;;11.76;100.00;99978.81;6090228;23;45487;-86
2023/10/18 03:54:04;;;;;;;;;0.00;0.00;;;;;11.78;100.00;99966.53;6070683;23;45365;-86
2023/10/18 03:56:47;;;;;;;;;;;;;;;;;;;;;
2023/10/18 03:59:44;;;;;;;;;0.00;0.00;;;;;11.85;100.00;99959.28;6009955;23;70130;-86
2023/10/18 04:02:40;;;;;;;;;;;;;;;;;;;;;
2023/10/18 04:05:45;;;;;;;;;0.00;0.00;;;;;11.94;100.00;99955.41;6031789;23;72933;-86
2023/10/18 04:08:32;;;;;;;;;0.00;0.00;;;;;11.92;100.00;99939.00;6008602;23;45310;-87
2023/10/18 04:11:30;;;;;;;;;0.00;0.00;;;;;11.92;100.00;99932.03;6056874;23;45502;-86
2023/10/18 04:14:10;;;;;;;;;0.00;0.00;;;;;11.94;100.00;99938.03;6030682;23;46023;-86
2023/10/18 04:16:58;;;;;;;;;0.00;0.00;;;;;12.03;100.00;99935.88;6065507;23;45438;-86
2023/10/18 04:19:34;;;;;;;;;0.00;0.00;;;;;11.95;100.00;99918.00;6092512;23;45619;-86
2023/10/18 04:22:14;;;;;;;;;0.00;0.00;;;;;11.96;100.00;99922.28;6181682;22;45422;-86
2023/10/18 04:24:43;;;;;;;;;0.00;0.00;;;;;11.95;100.00;99916.22;6209763;22;46368;-86
2023/10/18 04:27:14;;;;;;;;;0.00;0.00;;;;;12.00;100.00;99931.69;6210111;22;45294;-86
2023/10/18 04:29:39;;;;;;;;;0.00;0.00;;;;;11.99;100.00;99933.41;6209952;22;45546;-86
2023/10/18 04:32:06;;;;;;;;;0.00;0.00;;;;;12.02;100.00;99932.44;6231215;22;45467;-86
2023/10/18 04:34:33;;;;;;;;;0.00;0.00;;;;;12.00;100.00;99911.66;6303754;22;47146;-85
2023/10/18 04:37:02;;;;;;;;;0.50;0.50;;;;;12.01;100.00;99907.25;6303422;22;45329;-85
2023/10/18 04:39:31;;;;;;;;;0.00;0.00;;;;;12.05;100.00;99910.56;6303754;22;45361;-86
2023/10/18 04:41:59;;;;;;;;;0.00;0.00;;;;;12.00;100.00;99887.34;6303031;22;45501;-86
2023/10/18 04:44:24;;;;;;;;;0.00;0.00;;;;;12.02;100.00;99877.66;6277504;22;47023;-86
2023/10/18 04:46:52;;;;;;;;;0.00;0.00;;;;;12.05;100.00;99872.28;6277394;22;45491;-86
2023/10/18 04:49:31;;;;;;;;;0.00;0.00;;;;;12.01;100.00;99865.53;6277623;22;45306;-86
2023/10/18 04:51:57;;;;;;;;;0.00;0.00;;;;;11.96;100.00;99847.53;6305120;22;45385;-85
2023/10/18 04:54:41;;;;;;;;;0.00;0.00;;;;;11.99;100.00;99852.56;6303354;22;45331;-85
2023/10/18 04:57:13;;;;;;;;;9.00;9.00;;;;;11.99;100.00;99862.16;6304420;22;45376;-85
2023/10/18 04:59:52;;;;;;;;;0.00;0.00;;;;;11.99;100.00;99864.78;6305081;22;45304;-85
2023/10/18 05:02:26;;;;;;;;;0.00;0.00;;;;;11.95;100.00;99844.97;6303888;22;45880;-85
2023/10/18 05:04:52;;;;;;;;;0.00;0.00;;;;;11.97;100.00;99843.13;6304826;22;45418;-85
2023/10/18 05:07:18;;;;;;;;;0.00;0.00;;;;;11.99;100.00;99851.72;6303294;22;45255;-86
2023/10/18 05:09:44;;;;;;;;;0.00;0.00;;;;;12.03;100.00;99855.88;6303640;22;45385;-85
2023/10/18 05:14:44;;;;;;;;;0.00;0.00;;;;;11.97;100.00;99837.91;6304950;22;45946;-86
2023/10/18 05:17:10;;;;;;;;;0.00;0.00;;;;;12.04;100.00;99841.09;6304785;22;45295;-85
2023/10/18 05:19:41;;;;;;;;;0.00;0.00;;;;;12.01;100.00;99835.06;6277449;22;45271;-85
2023/10/18 05:22:08;;;;;;;;;0.00;0.00;;;;;11.99;100.00;99836.91;6331548;22;45344;-86
2023/10/18 05:24:37;;;;;;;;;0.00;0.00;;;;;12.05;100.00;99848.81;6335619;22;45369;-86
2023/10/18 05:27:19;;;;;;;;;0.00;0.00;;;;;11.97;100.00;99825.72;6308728;22;45341;-86
2023/10/18 05:29:52;;;;;;;;;0.00;0.00;;;;;11.97;100.00;99823.09;6312366;22;45227;-86
2023/10/18 05:32:38;;;;;;;;;0.00;0.00;;;;;12.04;100.00;99833.25;6310141;22;45386;-86
2023/10/18 05:40:56;;;;;;;;;0.00;0.00;;;;;12.07;100.00;99833.09;6244144;22;45323;-86
2023/10/18 05:43:35;;;;;;;;;0.00;0.00;;;;;12.09;100.00;99837.34;6216454;22;45426;-86
2023/10/18 05:46:07;;;;;;;;;0.00;0.00;;;;;12.12;100.00;99837.16;6217387;22;46109;-85
2023/10/18 05:48:40;;;;;;;;;0.00;0.00;;;;;12.12;100.00;99831.94;6216768;22;45398;-86
2023/10/18 05:53:59;;;;;;;;;0.00;0.00;;;;;12.13;100.00;99830.19;6240663;22;45235;-86
2023/10/18 05:56:32;;;;;;;;;0.00;0.00;;;;;12.17;100.00;99842.16;6214518;22;45364;-85
2023/10/18 05:59:27;;;;;;;;;0.00;0.00;;;;;12.17;100.00;99829.13;6241787;22;45567;-86
2023/10/18 06:01:54;;;;;;;;;0.00;0.00;;;;;12.20;100.00;99816.75;6240750;22;45353;-85
2023/10/18 06:04:55;;;;;;;;;0.00;0.00;;;;;12.25;100.00;99819.13;6214258;22;45431;-85
2023/10/18 06:07:18;;;;;;;;;0.00;0.00;;;;;12.25;100.00;99815.69;6233280;22;46147;-85
2023/10/18 06:09:58;;;;;;;;;0.00;0.00;;;;;12.28;100.00;99811.16;6239559;22;45373;-89
2023/10/18 06:16:43;;;;;;;;;;;;;;;;;;;;;
2023/10/18 06:19:25;;;;;;;;;;;;;;;;;;;;;
2023/10/18 06:28:19;;;;;;;;;0.00;0.00;;;;;12.41;100.00;99832.25;6060805;23;45307;-91
2023/10/18 06:31:28;;;;;;;;;;;;;;;;;;;;;
2023/10/18 06:34:32;;;;;;;;;;;;;;;;;;;;;
2023/10/18 06:37:14;;;;;;;;;;;;;;;;;;;;;
2023/10/18 06:39:42;;;;;;;;;0.00;0.00;;;;;12.43;100.00;99774.75;6050379;23;70924;-85
2023/10/18 06:42:15;;;;;;;;;0.00;0.00;;;;;12.45;100.00;99780.75;6036736;23;46561;-86
2023/10/18 06:44:54;;;;;;;;;0.00;0.00;;;;;12.50;100.00;99790.03;6038849;23;45375;-85
2023/10/18 06:47:44;;;;;;;;;0.00;0.00;;;;;12.52;100.00;99789.94;6063775;23;45480;-87
2023/10/18 06:50:13;;;;;;;;;0.00;0.00;;;;;12.51;100.00;99783.84;6062523;23;45307;-90
2023/10/18 06:52:52;;;;;;;;;0.00;0.00;;;;;12.53;100.00;99781.19;6039242;23;48280;-87
2023/10/18 06:55:35;;;;;;;;;0.00;0.00;;;;;12.49;100.00;99767.44;6038946;23;45615;-91
2023/10/18 07:01:30;;;;;;;;;0.00;0.00;;;;;12.55;100.00;99774.09;6068827;23;45379;-89
2023/10/18 07:03:56;;;;;;;;;0.00;0.00;;;;;12.52;100.00;99758.63;6126865;22;48054;-90
2023/10/18 07:06:25;;;;;;;;;0.00;0.00;;;;;12.58;100.00;99750.47;6279212;22;45689;-86
2023/10/18 07:08:51;;;;;;;;;0.00;0.00;;;;;12.62;100.00;99746.75;6335972;22;45362;-90
2023/10/18 07:11:19;;;;;;;;;0.00;0.00;;;;;12.67;100.00;99734.31;6308859;22;45262;-87
2023/10/18 07:13:58;;;;;;;;;0.00;0.00;;;;;12.64;100.00;99707.53;6335776;22;45264;-87
2023/10/18 07:16:48;;;;;;;;;0.00;0.00;;;;;12.73;100.00;99712.25;6310828;22;45240;-87
2023/10/18 07:21:52;;;;;;;;;0.00;0.00;;;;;12.81;100.00;99728.31;6337029;22;45328;-87
2023/10/18 07:24:18;;;;;;;;;0.75;0.75;;;;;12.85;100.00;99737.69;6309095;22;45719;-86
2023/10/18 07:26:46;;;;;;;;;0.00;0.00;;;;;12.87;100.00;99742.81;6283395;22;45267;-87
2023/10/18 07:29:13;;;;;;;;;0.00;0.00;;;;;12.93;100.00;99732.06;6337216;22;45372;-87
2023/10/18 07:31:40;;;;;;;;;0.00;0.00;;;;;12.99;100.00;99750.00;6337167;22;45584;-87
2023/10/18 07:34:09;;;;;;;;;0.00;0.00;;;;;13.01;100.00;99732.47;6309673;22;45293;-87
2023/10/18 07:36:38;;;;;;;;;0.00;0.00;;;;;13.13;100.00;99744.88;6309779;22;45326;-86
2023/10/18 07:39:04;;;;;;;;;0.50;0.50;;;;;13.21;100.00;99743.59;6288002;22;45263;-87
2023/10/18 07:41:34;;;;;;;;;0.00;0.00;;;;;13.28;100.00;99751.00;6321393;22;45270;-87
2023/10/18 07:44:00;;;;;;;;;0.00;0.00;;;;;13.33;100.00;99743.78;6362838;22;45508;-87
2023/10/18 07:46:27;;;;;;;;;0.00;0.00;;;;;13.49;100.00;99753.38;6335726;22;45079;-86
2023/10/18 07:49:04;;;;;;;;;0.00;0.00;;;;;13.54;100.00;99744.34;6344062;22;45238;-87
2023/10/18 07:51:31;;;;;;;;;0.00;0.00;;;;;13.62;100.00;99728.19;6311136;22;45532;-87
2023/10/18 07:53:57;;;;;;;;;0.00;0.00;;;;;13.71;100.00;99732.91;6309099;22;47074;-88
2023/10/18 07:56:32;;;;;;;;;4.00;4.00;;;;;13.80;100.00;99721.06;6308669;22;45322;-87
2023/10/18 08:04:41;;;;;;;;;0.00;0.00;;;;;14.16;100.00;99698.03;6313319;22;45748;-87
2023/10/18 08:07:19;;;;;;;;;0.00;0.00;;;;;14.23;100.00;99687.09;6284150;22;45279;-87
2023/10/18 08:09:57;;;;;;;;;0.00;0.00;;;;;14.37;100.00;99675.78;6308432;22;45326;-88
2023/10/18 08:12:33;;;;;;;;;0.00;0.00;;;;;14.45;100.00;99664.81;6308747;22;45317;-87
2023/10/18 08:14:58;;;;;;;;;0.00;0.00;;;;;14.54;100.00;99672.13;6308560;22;48077;-87
2023/10/18 08:17:30;;;;;;;;;0.00;0.00;;;;;14.65;100.00;99679.34;6336683;22;45496;-87
2023/10/18 08:22:52;;;;;;;;;0.00;0.00;;;;;14.74;100.00;99655.19;6336751;22;45766;-87
2023/10/18 08:25:24;;;;;;;;;0.00;0.00;;;;;14.88;100.00;99670.88;6308510;22;48012;-87
2023/10/18 08:28:16;;;;;;;;;0.00;0.00;;;;;14.98;100.00;99671.13;6335817;22;45235;-85
2023/10/18 08:33:19;;;;;;;;;0.00;0.00;;;;;15.05;100.00;99663.72;6309324;22;45388;-87
2023/10/18 08:35:58;;;;;;;;;0.00;0.00;;;;;15.14;100.00;99662.28;6282709;22;47135;-88
2023/10/18 08:38:26;;;;;;;;;0.00;0.00;;;;;15.15;100.00;99656.09;6309556;22;45318;-87
2023/10/18 08:41:11;;;;;;;;;0.00;0.00;;;;;15.17;100.00;99651.59;6309068;22;45274;-88
2023/10/18 08:44:15;;;;;;;;;0.00;0.00;;;;;15.22;100.00;99652.13;6286000;22;45395;-86
2023/10/18 08:46:51;;;;;;;;;0.00;0.00;;;;;15.30;100.00;99644.59;6336004;22;45317;-87
2023/10/18 08:49:32;;;;;;;;;0.00;0.00;;;;;15.43;100.00;99644.63;6310409;22;45274;-87
2023/10/18 08:52:08;;;;;;;;;0.00;0.00;;;;;15.58;100.00;99642.75;6336753;22;45325;-88
2023/10/18 08:54:36;;;;;;;;;0.00;0.00;;;;;15.65;100.00;99618.63;6310814;22;45519;-88
2023/10/18 08:57:06;;;;;;;;;0.00;0.00;;;;;15.79;100.00;99624.78;6308644;22;46359;-88
2023/10/18 08:59:48;;;;;;;;;0.00;0.00;;;;;15.92;100.00;99633.47;6283022;22;45590;-88
2023/10/18 09:02:21;;;;;;;;;0.00;0.00;;;;;16.04;100.00;99637.84;6286013;22;45295;-87
2023/10/18 09:04:59;;;;;;;;;0.00;0.00;;;;;16.18;100.00;99633.47;6336667;22;45318;-88
2023/10/18 09:07:44;;;;;;;;;0.00;0.00;;;;;16.27;100.00;99630.19;6310079;22;45372;-88
2023/10/18 09:10:32;;;;;;;;;0.00;0.00;;;;;16.33;100.00;99619.25;6312134;22;45222;-88
2023/10/18 09:15:49;;;;;;;;;22.00;22.00;;;;;16.54;100.00;99619.50;6336358;22;45321;-86
2023/10/18 09:18:16;;;;;;;;;0.00;0.00;;;;;16.57;100.00;99603.53;6334577;22;48050;-87
2023/10/18 09:20:42;;;;;;;;;0.00;0.00;;;;;16.62;100.00;99604.03;6308849;22;45388;-87
2023/10/18 09:23:14;;;;;;;;;0.00;0.00;;;;;16.70;100.00;99597.41;6309060;22;45342;-88
2023/10/18 09:28:25;;;;;;;;;0.00;0.00;;;;;16.83;100.00;99609.56;6312886;22;45781;-88
2023/10/18 09:31:00;;;;;;;;;0.00;0.00;;;;;16.89;100.00;99604.81;6308306;22;45342;-87
2023/10/18 09:33:33;;;;;;;;;0.00;0.00;;;;;16.96;100.00;99612.13;6283422;22;45298;-86
2023/10/18 09:36:18;;;;;;;;;0.00;0.00;;;;;17.06;100.00;99598.31;6307492;22;45479;-86
2023/10/18 09:38:44;;;;;;;;;0.00;0.00;;;;;17.17;100.00;99600.97;6335301;22;47300;-87
2023/10/18 09:41:11;;;;;;;;;0.00;0.00;;;;;17.25;100.00;99600.38;6308422;22;45266;-87
2023/10/18 09:43:40;;;;;;;;;0.00;0.00;;;;;17.28;100.00;99602.81;6336250;22;45313;-89
2023/10/18 09:46:07;;;;;;;;;0.00;0.00;;;;;17.35;100.00;99601.38;6335928;22;45627;-87
2023/10/18 09:49:09;;;;;;;;;0.00;0.00;;;;;17.34;100.00;99590.00;6308345;22;45756;-88
2023/10/18 09:51:42;;;;;;;;;0.00;0.00;;;;;17.39;100.00;99581.78;6336253;22;45490;-87
2023/10/18 09:54:12;;;;;;;;;0.00;0.00;;;;;17.33;100.00;99580.47;6308647;22;45457;-88
2023/10/18 09:56:48;;;;;;;;;1.00;1.00;;;;;17.31;100.00;99571.00;6308453;22;45474;-89
2023/10/18 09:59:47;;;;;;;;;;;;;;;;;;;;;
2023/10/18 10:02:16;;;;;;;;;0.00;0.00;;;;;17.17;100.00;99556.28;6311939;22;72004;-89
2023/10/18 10:08:00;;;;;;;;;0.00;0.00;;;;;16.97;100.00;99550.69;6305023;22;45247;-89
2023/10/18 10:10:43;;;;;;;;;0.00;0.00;;;;;16.89;100.00;99545.19;6310191;22;45350;-89
2023/10/18 10:13:25;;;;;;;;;0.00;0.00;;;;;16.80;100.00;99537.94;6313931;22;45214;-89
2023/10/18 10:16:03;;;;;;;;;0.00;0.00;;;;;16.78;100.00;99537.22;6310986;22;45387;-88
2023/10/18 10:18:32;;;;;;;;;0.00;0.00;;;;;16.85;100.00;99543.75;6310019;22;45479;-89
2023/10/18 10:21:11;;;;;;;;;;;;;;;;;;;;;
2023/10/18 10:23:38;;;;;;;;;0.00;0.00;;;;;16.92;100.00;99541.47;6299127;22;73406;-89
2023/10/18 10:26:22;;;;;;;;;0.00;0.00;;;;;17.02;100.00;99539.84;6304385;22;45229;-89
2023/10/18 10:31:52;;;;;;;;;0.00;0.00;;;;;17.27;100.00;99530.09;6305435;22;45423;-89
2023/10/18 10:34:26;;;;;;;;;0.00;0.00;;;;;17.33;100.00;99524.41;6303041;22;45305;-89
2023/10/18 10:37:23;;;;;;;;;0.00;0.00;;;;;17.51;100.00;99519.50;6303987;22;45372;-86
2023/10/18 10:39:49;;;;;;;;;0.00;0.00;;;;;17.61;100.00;99513.41;6304187;22;45418;-86
2023/10/18 10:54:07;;;;;;;;;0.00;0.00;;;;;17.86;100.00;99497.53;6304777;22;45516;-90
2023/10/18 10:59:51;;;;;;;;;0.00;0.00;;;;;17.87;100.00;99486.06;6209646;22;45338;-85
2023/10/18 11:02:24;;;;;;;;;0.00;0.00;;;;;17.77;100.00;99472.72;6210440;22;45330;-88
2023/10/18 11:04:50;;;;;;;;;0.00;0.00;;;;;17.73;100.00;99482.66;6186748;22;45357;-85
2023/10/18 11:07:24;;;;;;;;;0.00;0.00;;;;;17.67;100.00;99471.78;6209736;22;45712;-85
2023/10/18 11:09:51;;;;;;;;;0.00;0.00;;;;;17.66;100.00;99464.84;6206298;22;45527;-85
2023/10/18 11:12:18;;;;;;;;;0.00;0.00;;;;;17.60;100.00;99467.00;6209391;22;45327;-85
2023/10/18 11:14:44;;;;;;;;;0.00;0.00;;;;;17.60;100.00;99463.53;6183382;22;47106;-85
2023/10/18 11:19:43;;;;;;;;;0.00;0.00;;;;;17.55;100.00;99455.16;6184379;22;45464;-86
2023/10/18 11:22:11;;;;;;;;;0.00;0.00;;;;;17.55;100.00;99458.66;6207989;22;45478;-86
2023/10/18 11:24:39;;;;;;;;;0.00;0.00;;;;;17.52;100.00;99448.34;6208769;22;45391;-87
2023/10/18 11:27:08;;;;;;;;;0.00;0.00;;;;;17.51;100.00;99437.94;6184289;22;45423;-87
2023/10/18 11:29:34;;;;;;;;;0.00;0.00;;;;;17.53;100.00;99443.91;6206188;22;45512;-87
2023/10/18 11:31:59;;;;;;;;;7.00;3.00;;;;;17.47;100.00;99429.44;6183964;22;45341;-88
2023/10/18 11:34:25;;;;;;;;;0.00;0.00;;;;;17.53;100.00;99439.50;6208410;22;46303;-86
2023/10/18 11:36:51;;;;;;;;;0.00;0.00;;;;;17.49;100.00;99422.28;6258965;22;45356;-85
2023/10/18 11:41:44;;;;;;;;;3.00;3.00;;;;;17.51;100.00;99409.00;6303340;22;45676;-84
2023/10/18 11:44:13;;;;;;;;;0.00;0.00;;;;;17.46;100.00;99400.63;6302293;22;46941;-84
2023/10/18 11:46:46;;;;;;;;;0.00;0.00;;;;;17.43;100.00;99391.19;6299856;22;45274;-84
2023/10/18 11:49:14;;;;;;;;;0.00;0.00;;;;;17.38;100.00;99380.19;6304995;22;45276;-84
2023/10/18 11:52:41;;;;;;;;;0.00;0.00;;;;;17.37;100.00;99379.38;6306092;22;45276;-92
2023/10/18 11:55:09;;;;;;;;;0.00;0.00;;;;;17.35;100.00;99367.31;6063198;23;45299;-86
2023/10/18 11:57:40;;;;;;;;;0.00;0.00;;;;;17.30;100.00;99370.28;6061261;23;45338;-86
2023/10/18 12:03:09;;;;;;;;;0.00;0.00;;;;;17.24;100.00;99360.25;6045776;23;45244;-83
2023/10/18 12:05:36;;;;;;;;;0.00;0.00;;;;;17.25;100.00;99361.09;6042516;23;63652;-87
2023/10/18 12:08:05;;;;;;;;;0.00;0.00;;;;;17.18;100.00;99355.50;6052862;23;45736;-83
2023/10/18 12:10:34;;;;;;;;;0.00;0.00;;;;;17.14;100.00;99347.00;6036882;23;45360;-82
2023/10/18 12:13:02;;;;;;;;;0.00;0.00;;;;;17.14;100.00;99347.00;6060662;23;45480;-81
2023/10/18 12:15:30;;;;;;;;;0.00;0.00;;;;;17.11;100.00;99338.53;6059039;23;47084;-85
2023/10/18 12:17:55;;;;;;;;;0.00;0.00;;;;;17.09;100.00;99340.44;6057754;23;45405;-84
2023/10/18 12:20:25;;;;;;;;;0.00;0.00;;;;;17.09;100.00;99329.94;6059893;23;45404;-86
2023/10/18 12:22:51;;;;;;;;;0.00;0.00;;;;;17.13;100.00;99326.91;6060425;23;45311;-84
2023/10/18 12:25:19;;;;;;;;;0.00;0.00;;;;;17.18;100.00;99318.69;6059091;23;46299;-83
2023/10/18 12:27:52;;;;;;;;;0.00;0.00;;;;;17.28;100.00;99316.16;6059847;23;45391;-82
2023/10/18 12:33:19;;;;;;;;;0.00;0.00;;;;;17.36;100.00;99306.66;6189493;22;45518;-83
2023/10/18 12:35:45;;;;;;;;;0.00;0.00;;;;;17.44;100.00;99295.56;6207721;22;46977;-82
2023/10/18 12:38:14;;;;;;;;;0.00;0.00;;;;;17.47;100.00;99281.31;6208551;22;45304;-83
2023/10/18 12:40:41;;;;;;;;;0.00;0.00;;;;;17.52;100.00;99274.72;6208415;22;45358;-87
2023/10/18 12:43:07;;;;;;;;;0.00;0.00;;;;;17.65;100.00;99274.56;6183620;22;45363;-83
2023/10/18 12:45:42;;;;;;;;;0.00;0.00;;;;;17.74;100.00;99268.53;6208734;22;46506;-85
2023/10/18 12:48:13;;;;;;;;;0.00;0.00;;;;;17.82;100.00;99270.53;6185556;22;45197;-85
2023/10/18 12:50:44;;;;;;;;;0.00;0.00;;;;;17.90;100.00;99259.41;6184728;22;45356;-82
2023/10/18 12:56:16;;;;;;;;;0.00;0.00;;;;;17.93;100.00;99254.72;6208163;22;45432;-85
2023/10/18 12:58:54;;;;;;;;;0.00;0.00;;;;;17.89;100.00;99242.78;6208848;22;45312;-87
2023/10/18 13:01:31;;;;;;;;;0.00;0.00;;;;;17.85;100.00;99243.16;6208613;22;45368;-81
2023/10/18 13:03:59;;;;;;;;;3.00;3.00;;;;;17.73;100.00;99232.66;6209162;22;45579;-82
2023/10/18 13:06:35;;;;;;;;;0.00;0.00;;;;;17.53;100.00;99210.63;6207941;22;46093;-84
2023/10/18 13:09:15;;;;;;;;;0.00;0.00;;;;;17.37;100.00;99205.78;6262469;22;45710;-84
2023/10/18 13:11:44;;;;;;;;;0.00;0.00;;;;;17.23;100.00;99198.19;6304413;22;45315;-84
2023/10/18 13:14:15;;;;;;;;;0.00;0.00;;;;;17.12;100.00;99187.69;6302923;22;45576;-86
2023/10/18 13:16:44;;;;;;;;;0.00;0.00;;;;;17.06;100.00;99186.41;6302267;22;45619;-86
2023/10/18 13:19:14;;;;;;;;;0.00;0.00;;;;;17.02;100.00;99169.22;6303859;22;45234;-83
2023/10/18 13:21:39;;;;;;;;;0.00;0.00;;;;;17.00;100.00;99158.81;6321597;22;45315;-82
2023/10/18 13:26:54;;;;;;;;;0.00;0.00;;;;;17.05;100.00;99145.31;6335220;22;45414;-82
2023/10/18 13:31:46;;;;;;;;;0.00;0.00;;;;;17.13;100.00;99129.75;6335902;22;45238;-83
2023/10/18 13:34:20;;;;;;;;;0.00;0.00;;;;;17.12;100.00;99112.28;6307580;22;45492;-83
2023/10/18 13:36:48;;;;;;;;;0.00;0.00;;;;;17.17;100.00;99127.69;6335187;22;45541;-83
2023/10/18 13:39:14;;;;;;;;;0.00;0.00;;;;;17.17;100.00;99117.19;6335387;22;45389;-83
2023/10/18 13:41:40;;;;;;;;;0.00;0.00;;;;;17.17;100.00;99118.00;6308027;22;45341;-83
2023/10/18 13:44:08;;;;;;;;;0.00;0.00;;;;;17.15;100.00;99109.41;6335125;22;45332;-83
2023/10/18 13:46:34;;;;;;;;;0.00;0.00;;;;;17.16;100.00;99092.69;6302965;22;45383;-84
2023/10/18 13:48:59;;;;;;;;;0.00;0.00;;;;;17.21;100.00;99100.19;6306501;22;45290;-82
2023/10/18 13:51:24;;;;;;;;;0.00;0.00;;;;;17.25;100.00;99085.81;6307410;22;45341;-83
2023/10/18 13:53:51;;;;;;;;;0.00;0.00;;;;;17.30;100.00;99082.81;6306766;22;45271;-83
2023/10/18 13:56:17;;;;;;;;;0.00;0.00;;;;;17.27;100.00;99078.63;6306755;22;46536;-83
2023/10/18 13:58:43;;;;;;;;;0.00;0.00;;;;;17.27;100.00;99069.91;6280913;22;45843;-81
2023/10/18 14:01:14;;;;;;;;;0.00;0.00;;;;;17.25;100.00;99067.41;6334077;22;59252;-82
2023/10/18 14:03:42;;;;;;;;;0.00;0.00;;;;;17.25;100.00;99066.59;6307365;22;45268;-83
2023/10/18 14:06:10;;;;;;;;;0.00;0.00;;;;;17.26;100.00;99055.94;6306810;22;46489;-81
2023/10/18 14:08:35;;;;;;;;;0.00;0.00;;;;;17.24;100.00;99052.63;6333482;22;45415;-82
2023/10/18 14:11:01;;;;;;;;;0.00;0.00;;;;;17.26;100.00;99057.75;6334754;22;45312;-83
2023/10/18 14:13:27;;;;;;;;;0.00;0.00;;;;;17.22;100.00;99050.09;6307106;22;45468;-82
2023/10/18 14:15:53;;;;;;;;;0.00;0.00;;;;;17.21;100.00;99043.16;6306180;22;45383;-81
2023/10/18 14:18:18;;;;;;;;;0.00;0.00;;;;;17.19;100.00;99033.75;6335001;22;45211;-81
2023/10/18 14:20:50;;;;;;;;;0.00;0.00;;;;;17.15;100.00;99027.09;6280492;22;45276;-82
2023/10/18 14:23:19;;;;;;;;;0.00;0.00;;;;;17.17;100.00;99031.25;6334342;22;45504;-82
2023/10/18 14:25:45;;;;;;;;;0.00;0.00;;;;;17.19;100.00;99028.50;6334285;22;46351;-82
2023/10/18 14:28:12;;;;;;;;;0.00;0.00;;;;;17.21;100.00;99021.31;6334482;22;45255;-82
2023/10/18 14:30:38;;;;;;;;;0.00;0.00;;;;;17.20;100.00;99012.59;6307893;22;45331;-82
2023/10/18 14:33:04;;;;;;;;;0.00;0.00;;;;;17.25;100.00;99012.19;6306678;22;45389;-82
2023/10/18 14:35:31;;;;;;;;;0.00;0.00;;;;;17.27;100.00;99001.56;6307060;22;46413;-82
2023/10/18 14:37:59;;;;;;;;;0.00;0.00;;;;;17.27;100.00;99005.00;6334447;22;45338;-82
2023/10/18 14:40:27;;;;;;;;;0.00;0.00;;;;;17.29;100.00;98994.34;6281614;22;45579;-83
2023/10/18 14:42:55;;;;;;;;;0.00;0.00;;;;;17.29;100.00;98995.22;6334988;22;45253;-83
2023/10/18 14:45:20;;;;;;;;;0.00;0.00;;;;;17.29;100.00;98984.69;6280094;22;46772;-83
2023/10/18 14:47:48;;;;;;;;;0.00;0.00;;;;;17.36;100.00;98983.19;6334674;22;45270;-82
2023/10/18 14:50:14;;;;;;;;;0.00;0.00;;;;;17.41;100.00;98983.63;6307788;22;45187;-82
2023/10/18 14:52:42;;;;;;;;;0.00;0.00;;;;;17.41;100.00;98975.75;6334007;22;45594;-82
2023/10/18 14:55:11;;;;;;;;;0.00;0.00;;;;;17.46;100.00;98980.63;6280572;22;48010;-81
2023/10/18 14:57:40;;;;;;;;;0.00;0.00;;;;;17.47;100.00;98969.13;6335339;22;45270;-81
2023/10/18 15:00:10;;;;;;;;;0.00;0.00;;;;;17.52;100.00;98974.00;6336447;22;45299;-82
2023/10/18 15:02:37;;;;;;;;;0.00;0.00;;;;;17.51;100.00;98969.69;6336728;22;45321;-84
2023/10/18 15:05:04;;;;;;;;;0.00;0.00;;;;;17.55;100.00;98973.72;6335633;22;47108;-83
2023/10/18 15:07:30;;;;;;;;;0.00;0.00;;;;;17.55;100.00;98965.84;6333374;22;45449;-84
2023/10/18 15:09:55;;;;;;;;;0.00;0.00;;;;;17.58;100.00;98963.78;6308627;22;45267;-84
2023/10/18 15:12:21;;;;;;;;;0.00;0.00;;;;;17.59;100.00;98954.94;6308218;22;45228;-83
2023/10/18 15:14:46;;;;;;;;;0.00;0.00;;;;;17.60;100.00;98963.66;6306871;22;46207;-84
2023/10/18 15:17:12;;;;;;;;;0.00;0.00;;;;;17.63;100.00;98955.50;6306572;22;59352;-84
2023/10/18 15:19:37;;;;;;;;;0.00;0.00;;;;;17.63;100.00;98949.41;6335836;22;45231;-83
2023/10/18 15:22:03;;;;;;;;;0.00;0.00;;;;;17.64;100.00;98946.63;6307609;22;45620;-83
2023/10/18 15:24:40;;;;;;;;;0.00;0.00;;;;;17.67;100.00;98956.88;6303944;22;46577;-84